sensor_id;sensor_type;location;lat;lon;timestamp;temperature;humidity
12746;DHT22;6437;53.686;10.030;2023-01-15T00:02:10;7.80;99.90
12746;DHT22;6437;53.686;10.030;2023-01-15T00:05:16;7.80;99.90
12746;DHT22;6437;53.686;10.030;2023-01-15T00:08:19;7.90;99.90
12746;DHT22;6437;53.686;10.030;2023-01-15T00:11:21;7.80;99.90
12746;DHT22;6437;53.686;10.030;2023-01-15T00:14:24;7.70;99.90
12746;DHT22;6437;53.686;10.030;2023-01-15T00:17:25;7.60;99.90
12746;DHT22;6437;53.686;10.030;2023-01-15T00:20:27;7.60;99.90
12746;DHT22;6437;53.686;10.030;2023-01-15T00:23:31;7.70;99.90
12746;DHT22;6437;53.686;10.030;2023-01-15T00:26:51;7.50;99.90
12746;DHT22;6437;53.686;10.030;2023-01-15T00:30:12;7.80;99.90
12746;DHT22;6437;53.686;10.030;2023-01-15T00:33:14;7.50;99.90
12746;DHT22;6437;53.686;10.030;2023-01-15T00:36:16;7.50;99.90
12746;DHT22;6437;53.686;10.030;2023-01-15T00:39:20;7.40;99.90
12746;DHT22;6437;53.686;10.030;2023-01-15T00:42:23;7.40;99.90
12746;DHT22;6437;53.686;10.030;2023-01-15T00:45:25;7.40;99.90
12746;DHT22;6437;53.686;10.030;2023-01-15T00:48:27;7.30;99.90
12746;DHT22;6437;53.686;10.030;2023-01-15T00:51:28;7.30;99.90
12746;DHT22;6437;53.686;10.030;2023-01-15T00:54:32;7.30;99.90
12746;DHT22;6437;53.686;10.030;2023-01-15T00:57:33;7.30;99.90
12746;DHT22;6437;53.686;10.030;2023-01-15T01:00:35;7.30;99.90
12746;DHT22;6437;53.686;10.030;2023-01-15T01:03:37;7.30;99.90
12746;DHT22;6437;53.686;10.030;2023-01-15T01:06:39;7.30;99.90
12746;DHT22;6437;53.686;10.030;2023-01-15T01:09:42;7.30;99.90
12746;DHT22;6437;53.686;10.030;2023-01-15T01:12:43;7.30;99.90
12746;DHT22;6437;53.686;10.030;2023-01-15T01:15:47;7.30;99.90
12746;DHT22;6437;53.686;10.030;2023-01-15T01:18:49;7.20;99.90
12746;DHT22;6437;53.686;10.030;2023-01-15T01:21:51;7.20;99.90
12746;DHT22;6437;53.686;10.030;2023-01-15T01:24:55;7.20;99.90
12746;DHT22;6437;53.686;10.030;2023-01-15T01:27:56;7.10;99.90
12746;DHT22;6437;53.686;10.030;2023-01-15T01:30:58;7.10;99.90
12746;DHT22;6437;53.686;10.030;2023-01-15T01:34:00;7.10;99.90
12746;DHT22;6437;53.686;10.030;2023-01-15T01:37:01;7.10;99.90
12746;DHT22;6437;53.686;10.030;2023-01-15T01:40:05;7.10;99.90
12746;DHT22;6437;53.686;10.030;2023-01-15T01:43:15;7.10;99.90
12746;DHT22;6437;53.686;10.030;2023-01-15T01:46:18;7.10;99.90
12746;DHT22;6437;53.686;10.030;2023-01-15T01:49:20;7.10;99.90
12746;DHT22;6437;53.686;10.030;2023-01-15T01:52:26;7.20;99.90
12746;DHT22;6437;53.686;10.030;2023-01-15T01:55:30;7.10;99.90
12746;DHT22;6437;53.686;10.030;2023-01-15T01:58:34;7.20;99.90
12746;DHT22;6437;53.686;10.030;2023-01-15T02:01:36;7.20;99.90
12746;DHT22;6437;53.686;10.030;2023-01-15T02:04:38;7.10;99.90
12746;DHT22;6437;53.686;10.030;2023-01-15T02:07:40;7.20;99.90
12746;DHT22;6437;53.686;10.030;2023-01-15T02:10:44;7.20;99.90
12746;DHT22;6437;53.686;10.030;2023-01-15T02:13:54;7.20;99.90
12746;DHT22;6437;53.686;10.030;2023-01-15T02:17:04;7.30;99.90
12746;DHT22;6437;53.686;10.030;2023-01-15T02:20:18;7.20;99.90
12746;DHT22;6437;53.686;10.030;2023-01-15T02:23:32;7.30;99.90
12746;DHT22;6437;53.686;10.030;2023-01-15T02:27:06;7.20;99.90
12746;DHT22;6437;53.686;10.030;2023-01-15T02:30:13;7.20;99.90
12746;DHT22;6437;53.686;10.030;2023-01-15T02:33:20;7.20;99.90
12746;DHT22;6437;53.686;10.030;2023-01-15T02:36:25;7.20;99.90
12746;DHT22;6437;53.686;10.030;2023-01-15T02:39:30;7.20;99.90
12746;DHT22;6437;53.686;10.030;2023-01-15T02:42:35;7.20;99.90
12746;DHT22;6437;53.686;10.030;2023-01-15T02:45:40;7.20;99.90
12746;DHT22;6437;53.686;10.030;2023-01-15T02:48:45;7.30;99.90
12746;DHT22;6437;53.686;10.030;2023-01-15T02:51:51;7.30;99.90
12746;DHT22;6437;53.686;10.030;2023-01-15T02:54:58;7.30;99.90
12746;DHT22;6437;53.686;10.030;2023-01-15T02:58:06;7.30;99.90
12746;DHT22;6437;53.686;10.030;2023-01-15T03:01:13;7.30;99.90
12746;DHT22;6437;53.686;10.030;2023-01-15T03:04:18;7.30;99.90
12746;DHT22;6437;53.686;10.030;2023-01-15T03:07:25;7.30;99.90
12746;DHT22;6437;53.686;10.030;2023-01-15T03:10:35;7.30;99.90
12746;DHT22;6437;53.686;10.030;2023-01-15T03:13:45;7.20;99.90
12746;DHT22;6437;53.686;10.030;2023-01-15T03:16:52;7.30;99.90
12746;DHT22;6437;53.686;10.030;2023-01-15T03:19:57;7.20;99.90
12746;DHT22;6437;53.686;10.030;2023-01-15T03:23:06;7.20;99.90
12746;DHT22;6437;53.686;10.030;2023-01-15T03:26:09;7.20;99.90
12746;DHT22;6437;53.686;10.030;2023-01-15T03:29:13;7.20;99.90
12746;DHT22;6437;53.686;10.030;2023-01-15T03:32:17;7.20;99.90
12746;DHT22;6437;53.686;10.030;2023-01-15T03:35:39;7.20;99.90
12746;DHT22;6437;53.686;10.030;2023-01-15T03:38:42;7.20;99.90
12746;DHT22;6437;53.686;10.030;2023-01-15T03:41:55;7.20;99.90
12746;DHT22;6437;53.686;10.030;2023-01-15T03:45:03;7.20;99.90
12746;DHT22;6437;53.686;10.030;2023-01-15T03:48:10;7.20;99.90
12746;DHT22;6437;53.686;10.030;2023-01-15T03:51:20;7.20;99.90
12746;DHT22;6437;53.686;10.030;2023-01-15T03:54:32;7.20;99.90
12746;DHT22;6437;53.686;10.030;2023-01-15T03:57:41;7.30;99.90
12746;DHT22;6437;53.686;10.030;2023-01-15T04:00:48;7.20;99.90
12746;DHT22;6437;53.686;10.030;2023-01-15T04:03:51;7.20;99.90
12746;DHT22;6437;53.686;10.030;2023-01-15T04:06:54;7.20;99.90
12746;DHT22;6437;53.686;10.030;2023-01-15T04:09:57;7.20;99.90
12746;DHT22;6437;53.686;10.030;2023-01-15T04:12:59;7.20;99.90
12746;DHT22;6437;53.686;10.030;2023-01-15T04:16:02;7.10;99.90
12746;DHT22;6437;53.686;10.030;2023-01-15T04:19:04;7.10;99.90
12746;DHT22;6437;53.686;10.030;2023-01-15T04:22:06;7.20;99.90
12746;DHT22;6437;53.686;10.030;2023-01-15T04:25:09;7.10;99.90
12746;DHT22;6437;53.686;10.030;2023-01-15T04:28:11;7.10;99.90
12746;DHT22;6437;53.686;10.030;2023-01-15T04:31:15;7.10;99.90
12746;DHT22;6437;53.686;10.030;2023-01-15T04:34:16;7.10;99.90
12746;DHT22;6437;53.686;10.030;2023-01-15T04:37:18;7.10;99.90
12746;DHT22;6437;53.686;10.030;2023-01-15T04:40:20;7.00;99.90
12746;DHT22;6437;53.686;10.030;2023-01-15T04:43:36;7.00;99.90
12746;DHT22;6437;53.686;10.030;2023-01-15T04:46:56;7.00;99.90
12746;DHT22;6437;53.686;10.030;2023-01-15T04:49:59;7.00;99.90
12746;DHT22;6437;53.686;10.030;2023-01-15T04:53:01;7.00;99.90
12746;DHT22;6437;53.686;10.030;2023-01-15T04:56:04;7.00;99.90
12746;DHT22;6437;53.686;10.030;2023-01-15T04:59:06;7.00;99.90
12746;DHT22;6437;53.686;10.030;2023-01-15T05:02:09;7.00;99.90
12746;DHT22;6437;53.686;10.030;2023-01-15T05:05:11;7.00;99.90
12746;DHT22;6437;53.686;10.030;2023-01-15T05:08:13;7.00;99.90
12746;DHT22;6437;53.686;10.030;2023-01-15T05:11:14;7.00;99.90
12746;DHT22;6437;53.686;10.030;2023-01-15T05:14:16;7.00;99.90
12746;DHT22;6437;53.686;10.030;2023-01-15T05:17:19;7.00;99.90
12746;DHT22;6437;53.686;10.030;2023-01-15T05:20:21;7.00;99.90
12746;DHT22;6437;53.686;10.030;2023-01-15T05:23:23;7.00;99.90
12746;DHT22;6437;53.686;10.030;2023-01-15T05:26:24;7.00;99.90
12746;DHT22;6437;53.686;10.030;2023-01-15T05:29:26;7.00;99.90
12746;DHT22;6437;53.686;10.030;2023-01-15T05:32:30;7.00;99.90
12746;DHT22;6437;53.686;10.030;2023-01-15T05:35:32;7.00;99.90
12746;DHT22;6437;53.686;10.030;2023-01-15T05:38:34;7.00;99.90
12746;DHT22;6437;53.686;10.030;2023-01-15T05:41:36;7.00;99.90
12746;DHT22;6437;53.686;10.030;2023-01-15T05:44:50;7.00;99.90
12746;DHT22;6437;53.686;10.030;2023-01-15T05:47:53;7.00;99.90
12746;DHT22;6437;53.686;10.030;2023-01-15T05:50:55;7.00;99.90
12746;DHT22;6437;53.686;10.030;2023-01-15T05:53:57;7.00;99.90
12746;DHT22;6437;53.686;10.030;2023-01-15T05:56:59;7.00;99.90
12746;DHT22;6437;53.686;10.030;2023-01-15T06:00:02;7.00;99.90
12746;DHT22;6437;53.686;10.030;2023-01-15T06:03:06;7.10;99.90
12746;DHT22;6437;53.686;10.030;2023-01-15T06:06:12;7.00;99.90
12746;DHT22;6437;53.686;10.030;2023-01-15T06:09:14;7.20;99.90
12746;DHT22;6437;53.686;10.030;2023-01-15T06:12:16;7.00;99.90
12746;DHT22;6437;53.686;10.030;2023-01-15T06:15:17;7.00;99.90
12746;DHT22;6437;53.686;10.030;2023-01-15T06:18:22;7.10;99.90
12746;DHT22;6437;53.686;10.030;2023-01-15T06:21:24;7.10;99.90
12746;DHT22;6437;53.686;10.030;2023-01-15T06:24:25;7.00;99.90
12746;DHT22;6437;53.686;10.030;2023-01-15T06:27:27;7.00;99.90
12746;DHT22;6437;53.686;10.030;2023-01-15T06:30:29;7.10;99.90
12746;DHT22;6437;53.686;10.030;2023-01-15T06:33:32;7.00;99.90
12746;DHT22;6437;53.686;10.030;2023-01-15T06:36:34;7.00;99.90
12746;DHT22;6437;53.686;10.030;2023-01-15T06:39:36;7.00;99.90
12746;DHT22;6437;53.686;10.030;2023-01-15T06:42:37;7.00;99.90
12746;DHT22;6437;53.686;10.030;2023-01-15T06:45:57;7.00;99.90
12746;DHT22;6437;53.686;10.030;2023-01-15T06:49:22;7.00;99.90
12746;DHT22;6437;53.686;10.030;2023-01-15T06:52:25;7.00;99.90
12746;DHT22;6437;53.686;10.030;2023-01-15T06:55:27;7.00;99.90
12746;DHT22;6437;53.686;10.030;2023-01-15T06:58:29;7.00;99.90
12746;DHT22;6437;53.686;10.030;2023-01-15T07:01:31;7.00;99.90
12746;DHT22;6437;53.686;10.030;2023-01-15T07:04:34;7.00;99.90
12746;DHT22;6437;53.686;10.030;2023-01-15T07:07:36;7.00;99.90
12746;DHT22;6437;53.686;10.030;2023-01-15T07:10:37;7.00;99.90
12746;DHT22;6437;53.686;10.030;2023-01-15T07:13:39;7.00;99.90
12746;DHT22;6437;53.686;10.030;2023-01-15T07:16:41;7.00;99.90
12746;DHT22;6437;53.686;10.030;2023-01-15T07:19:45;7.00;99.90
12746;DHT22;6437;53.686;10.030;2023-01-15T07:22:47;7.00;99.90
12746;DHT22;6437;53.686;10.030;2023-01-15T07:25:51;7.10;99.90
12746;DHT22;6437;53.686;10.030;2023-01-15T07:28:53;7.10;99.90
12746;DHT22;6437;53.686;10.030;2023-01-15T07:31:55;7.10;99.90
12746;DHT22;6437;53.686;10.030;2023-01-15T07:34:58;7.10;99.90
12746;DHT22;6437;53.686;10.030;2023-01-15T07:38:00;7.00;99.90
12746;DHT22;6437;53.686;10.030;2023-01-15T07:41:02;7.10;99.90
12746;DHT22;6437;53.686;10.030;2023-01-15T07:44:21;7.10;99.90
12746;DHT22;6437;53.686;10.030;2023-01-15T07:47:41;7.10;99.90
12746;DHT22;6437;53.686;10.030;2023-01-15T07:51:01;7.00;99.90
12746;DHT22;6437;53.686;10.030;2023-01-15T07:54:03;7.00;99.90
12746;DHT22;6437;53.686;10.030;2023-01-15T07:57:05;7.00;99.90
12746;DHT22;6437;53.686;10.030;2023-01-15T08:00:10;7.00;99.90
12746;DHT22;6437;53.686;10.030;2023-01-15T08:03:12;7.00;99.90
12746;DHT22;6437;53.686;10.030;2023-01-15T08:06:15;6.90;99.90
12746;DHT22;6437;53.686;10.030;2023-01-15T08:09:17;6.90;99.90
12746;DHT22;6437;53.686;10.030;2023-01-15T08:12:19;7.00;99.90
12746;DHT22;6437;53.686;10.030;2023-01-15T08:15:40;6.60;99.90
12746;DHT22;6437;53.686;10.030;2023-01-15T08:18:43;7.00;99.90
12746;DHT22;6437;53.686;10.030;2023-01-15T08:21:47;7.00;99.90
12746;DHT22;6437;53.686;10.030;2023-01-15T08:24:50;6.90;99.90
12746;DHT22;6437;53.686;10.030;2023-01-15T08:27:53;7.00;99.90
12746;DHT22;6437;53.686;10.030;2023-01-15T08:30:55;7.00;99.90
12746;DHT22;6437;53.686;10.030;2023-01-15T08:33:56;7.00;99.90
12746;DHT22;6437;53.686;10.030;2023-01-15T08:36:59;7.00;99.90
12746;DHT22;6437;53.686;10.030;2023-01-15T08:40:01;7.00;99.90
12746;DHT22;6437;53.686;10.030;2023-01-15T08:43:04;7.00;99.90
12746;DHT22;6437;53.686;10.030;2023-01-15T08:46:06;7.00;99.90
12746;DHT22;6437;53.686;10.030;2023-01-15T08:49:09;6.90;99.90
12746;DHT22;6437;53.686;10.030;2023-01-15T08:52:12;6.90;99.90
12746;DHT22;6437;53.686;10.030;2023-01-15T08:55:14;6.90;99.90
12746;DHT22;6437;53.686;10.030;2023-01-15T08:58:16;6.80;99.90
12746;DHT22;6437;53.686;10.030;2023-01-15T09:01:18;6.80;99.90
12746;DHT22;6437;53.686;10.030;2023-01-15T09:04:20;6.80;99.90
12746;DHT22;6437;53.686;10.030;2023-01-15T09:07:24;6.80;99.90
12746;DHT22;6437;53.686;10.030;2023-01-15T09:10:26;6.80;99.90
12746;DHT22;6437;53.686;10.030;2023-01-15T09:13:29;6.80;99.90
12746;DHT22;6437;53.686;10.030;2023-01-15T09:16:31;6.80;99.90
12746;DHT22;6437;53.686;10.030;2023-01-15T09:19:33;6.80;99.90
12746;DHT22;6437;53.686;10.030;2023-01-15T09:22:36;6.80;99.90
12746;DHT22;6437;53.686;10.030;2023-01-15T09:25:38;6.80;99.90
12746;DHT22;6437;53.686;10.030;2023-01-15T09:28:39;6.80;99.90
12746;DHT22;6437;53.686;10.030;2023-01-15T09:31:41;6.80;99.90
12746;DHT22;6437;53.686;10.030;2023-01-15T09:34:43;6.80;99.90
12746;DHT22;6437;53.686;10.030;2023-01-15T09:37:50;7.00;99.90
12746;DHT22;6437;53.686;10.030;2023-01-15T09:40:54;6.80;99.90
12746;DHT22;6437;53.686;10.030;2023-01-15T09:44:06;6.80;99.90
12746;DHT22;6437;53.686;10.030;2023-01-15T09:47:17;6.80;99.90
12746;DHT22;6437;53.686;10.030;2023-01-15T09:50:31;6.80;99.90
12746;DHT22;6437;53.686;10.030;2023-01-15T09:54:01;6.80;99.90
12746;DHT22;6437;53.686;10.030;2023-01-15T09:57:09;6.80;99.90
12746;DHT22;6437;53.686;10.030;2023-01-15T10:00:17;6.80;99.90
12746;DHT22;6437;53.686;10.030;2023-01-15T10:03:27;6.90;99.90
12746;DHT22;6437;53.686;10.030;2023-01-15T10:06:32;6.90;99.90
12746;DHT22;6437;53.686;10.030;2023-01-15T10:09:41;6.90;99.90
12746;DHT22;6437;53.686;10.030;2023-01-15T10:12:44;6.90;99.90
12746;DHT22;6437;53.686;10.030;2023-01-15T10:15:47;7.00;99.90
12746;DHT22;6437;53.686;10.030;2023-01-15T10:18:49;7.00;99.90
12746;DHT22;6437;53.686;10.030;2023-01-15T10:21:56;7.00;99.90
12746;DHT22;6437;53.686;10.030;2023-01-15T10:25:04;7.10;99.90
12746;DHT22;6437;53.686;10.030;2023-01-15T10:28:14;7.00;99.90
12746;DHT22;6437;53.686;10.030;2023-01-15T10:31:19;7.00;99.90
12746;DHT22;6437;53.686;10.030;2023-01-15T10:34:59;7.00;99.90
12746;DHT22;6437;53.686;10.030;2023-01-15T10:38:13;7.00;99.90
12746;DHT22;6437;53.686;10.030;2023-01-15T10:41:30;6.90;99.90
12746;DHT22;6437;53.686;10.030;2023-01-15T10:44:42;7.00;99.90
12746;DHT22;6437;53.686;10.030;2023-01-15T10:47:52;7.00;99.90
12746;DHT22;6437;53.686;10.030;2023-01-15T10:51:01;7.00;99.90
12746;DHT22;6437;53.686;10.030;2023-01-15T10:54:09;7.00;99.90
12746;DHT22;6437;53.686;10.030;2023-01-15T10:57:17;7.00;99.90
12746;DHT22;6437;53.686;10.030;2023-01-15T11:00:22;7.00;99.90
12746;DHT22;6437;53.686;10.030;2023-01-15T11:03:30;7.00;99.90
12746;DHT22;6437;53.686;10.030;2023-01-15T11:06:33;7.10;99.90
12746;DHT22;6437;53.686;10.030;2023-01-15T11:09:35;7.10;99.90
12746;DHT22;6437;53.686;10.030;2023-01-15T11:12:40;7.00;99.90
12746;DHT22;6437;53.686;10.030;2023-01-15T11:16:00;7.00;99.90
12746;DHT22;6437;53.686;10.030;2023-01-15T11:19:25;7.00;99.90
12746;DHT22;6437;53.686;10.030;2023-01-15T11:22:41;7.00;99.90
12746;DHT22;6437;53.686;10.030;2023-01-15T11:25:48;6.90;99.90
12746;DHT22;6437;53.686;10.030;2023-01-15T11:28:52;7.00;99.90
12746;DHT22;6437;53.686;10.030;2023-01-15T11:31:54;7.00;99.90
12746;DHT22;6437;53.686;10.030;2023-01-15T11:34:57;7.40;99.90
12746;DHT22;6437;53.686;10.030;2023-01-15T11:38:04;7.70;99.90
12746;DHT22;6437;53.686;10.030;2023-01-15T11:41:06;7.60;99.90
12746;DHT22;6437;53.686;10.030;2023-01-15T11:44:09;7.60;99.90
12746;DHT22;6437;53.686;10.030;2023-01-15T11:47:29;7.80;99.90
12746;DHT22;6437;53.686;10.030;2023-01-15T11:50:53;9.00;99.90
12746;DHT22;6437;53.686;10.030;2023-01-15T11:54:01;9.90;99.90
12746;DHT22;6437;53.686;10.030;2023-01-15T11:57:04;8.90;99.90
12746;DHT22;6437;53.686;10.030;2023-01-15T12:00:19;8.70;99.90
12746;DHT22;6437;53.686;10.030;2023-01-15T12:03:25;9.40;99.90
12746;DHT22;6437;53.686;10.030;2023-01-15T12:06:29;9.10;99.90
12746;DHT22;6437;53.686;10.030;2023-01-15T12:09:37;8.60;99.90
12746;DHT22;6437;53.686;10.030;2023-01-15T12:12:53;8.10;99.90
12746;DHT22;6437;53.686;10.030;2023-01-15T12:16:06;7.90;99.90
12746;DHT22;6437;53.686;10.030;2023-01-15T12:19:17;8.10;99.90
12746;DHT22;6437;53.686;10.030;2023-01-15T12:22:42;8.30;99.90
12746;DHT22;6437;53.686;10.030;2023-01-15T12:25:56;8.50;99.90
12746;DHT22;6437;53.686;10.030;2023-01-15T12:29:04;8.80;99.90
12746;DHT22;6437;53.686;10.030;2023-01-15T12:32:11;8.90;99.90
12746;DHT22;6437;53.686;10.030;2023-01-15T12:35:17;9.00;99.90
12746;DHT22;6437;53.686;10.030;2023-01-15T12:38:29;9.50;99.90
12746;DHT22;6437;53.686;10.030;2023-01-15T12:41:34;9.60;99.90
12746;DHT22;6437;53.686;10.030;2023-01-15T12:44:56;9.80;99.90
12746;DHT22;6437;53.686;10.030;2023-01-15T12:48:12;9.70;99.90
12746;DHT22;6437;53.686;10.030;2023-01-15T12:51:21;9.60;99.90
12746;DHT22;6437;53.686;10.030;2023-01-15T12:54:30;9.20;99.90
12746;DHT22;6437;53.686;10.030;2023-01-15T12:57:36;8.80;99.90
12746;DHT22;6437;53.686;10.030;2023-01-15T13:00:41;8.50;99.90
12746;DHT22;6437;53.686;10.030;2023-01-15T13:03:57;8.20;99.90
12746;DHT22;6437;53.686;10.030;2023-01-15T13:07:04;7.90;99.90
12746;DHT22;6437;53.686;10.030;2023-01-15T13:10:16;7.70;99.90
12746;DHT22;6437;53.686;10.030;2023-01-15T13:13:20;7.50;99.90
12746;DHT22;6437;53.686;10.030;2023-01-15T13:16:32;7.40;99.90
12746;DHT22;6437;53.686;10.030;2023-01-15T13:19:46;7.30;99.90
12746;DHT22;6437;53.686;10.030;2023-01-15T13:22:51;7.10;99.90
12746;DHT22;6437;53.686;10.030;2023-01-15T13:26:00;7.10;99.90
12746;DHT22;6437;53.686;10.030;2023-01-15T13:29:13;6.90;99.90
12746;DHT22;6437;53.686;10.030;2023-01-15T13:32:19;6.80;99.90
12746;DHT22;6437;53.686;10.030;2023-01-15T13:35:28;6.80;99.90
12746;DHT22;6437;53.686;10.030;2023-01-15T13:38:36;6.80;99.90
12746;DHT22;6437;53.686;10.030;2023-01-15T13:41:39;6.70;99.90
12746;DHT22;6437;53.686;10.030;2023-01-15T13:45:02;6.70;99.90
12746;DHT22;6437;53.686;10.030;2023-01-15T13:48:09;6.70;99.90
12746;DHT22;6437;53.686;10.030;2023-01-15T13:51:26;6.70;99.90
12746;DHT22;6437;53.686;10.030;2023-01-15T13:54:31;6.70;99.90
12746;DHT22;6437;53.686;10.030;2023-01-15T13:57:35;6.70;99.90
12746;DHT22;6437;53.686;10.030;2023-01-15T14:00:37;6.70;99.90
12746;DHT22;6437;53.686;10.030;2023-01-15T14:03:39;6.70;99.90
12746;DHT22;6437;53.686;10.030;2023-01-15T14:06:44;6.80;99.90
12746;DHT22;6437;53.686;10.030;2023-01-15T14:09:47;6.80;99.90
12746;DHT22;6437;53.686;10.030;2023-01-15T14:12:59;6.80;99.90
12746;DHT22;6437;53.686;10.030;2023-01-15T14:16:14;6.80;99.90
12746;DHT22;6437;53.686;10.030;2023-01-15T14:19:32;6.90;99.90
12746;DHT22;6437;53.686;10.030;2023-01-15T14:22:58;6.90;99.90
12746;DHT22;6437;53.686;10.030;2023-01-15T14:26:10;6.90;99.90
12746;DHT22;6437;53.686;10.030;2023-01-15T14:29:42;6.80;99.90
12746;DHT22;6437;53.686;10.030;2023-01-15T14:32:55;6.90;99.90
12746;DHT22;6437;53.686;10.030;2023-01-15T14:36:08;6.80;99.90
12746;DHT22;6437;53.686;10.030;2023-01-15T14:39:25;6.90;99.90
12746;DHT22;6437;53.686;10.030;2023-01-15T14:42:30;6.80;99.90
12746;DHT22;6437;53.686;10.030;2023-01-15T14:45:52;6.90;99.90
12746;DHT22;6437;53.686;10.030;2023-01-15T14:48:54;6.90;99.90
12746;DHT22;6437;53.686;10.030;2023-01-15T14:51:57;6.90;99.90
12746;DHT22;6437;53.686;10.030;2023-01-15T14:55:00;6.90;99.90
12746;DHT22;6437;53.686;10.030;2023-01-15T14:58:03;7.00;99.90
12746;DHT22;6437;53.686;10.030;2023-01-15T15:01:35;6.90;99.90
12746;DHT22;6437;53.686;10.030;2023-01-15T15:04:39;6.90;99.90
12746;DHT22;6437;53.686;10.030;2023-01-15T15:07:45;6.90;99.90
12746;DHT22;6437;53.686;10.030;2023-01-15T15:10:52;6.90;99.90
12746;DHT22;6437;53.686;10.030;2023-01-15T15:13:55;6.70;99.90
12746;DHT22;6437;53.686;10.030;2023-01-15T15:17:00;6.60;99.90
12746;DHT22;6437;53.686;10.030;2023-01-15T15:20:21;6.40;99.90
12746;DHT22;6437;53.686;10.030;2023-01-15T15:23:27;6.30;99.90
12746;DHT22;6437;53.686;10.030;2023-01-15T15:26:34;6.20;99.90
12746;DHT22;6437;53.686;10.030;2023-01-15T15:29:36;6.10;99.90
12746;DHT22;6437;53.686;10.030;2023-01-15T15:32:38;6.00;99.90
12746;DHT22;6437;53.686;10.030;2023-01-15T15:35:44;5.90;99.90
12746;DHT22;6437;53.686;10.030;2023-01-15T15:38:54;6.00;99.90
12746;DHT22;6437;53.686;10.030;2023-01-15T15:41:58;5.90;99.90
12746;DHT22;6437;53.686;10.030;2023-01-15T15:45:19;5.80;99.90
12746;DHT22;6437;53.686;10.030;2023-01-15T15:48:41;5.70;99.90
12746;DHT22;6437;53.686;10.030;2023-01-15T15:51:46;5.70;99.90
12746;DHT22;6437;53.686;10.030;2023-01-15T15:54:57;5.60;99.90
12746;DHT22;6437;53.686;10.030;2023-01-15T15:58:01;5.50;99.90
12746;DHT22;6437;53.686;10.030;2023-01-15T16:01:03;5.50;99.90
12746;DHT22;6437;53.686;10.030;2023-01-15T16:04:05;5.30;99.90
12746;DHT22;6437;53.686;10.030;2023-01-15T16:07:16;5.40;99.90
12746;DHT22;6437;53.686;10.030;2023-01-15T16:10:23;5.30;99.90
12746;DHT22;6437;53.686;10.030;2023-01-15T16:13:29;5.30;99.90
12746;DHT22;6437;53.686;10.030;2023-01-15T16:16:33;5.20;99.90
12746;DHT22;6437;53.686;10.030;2023-01-15T16:19:35;5.20;99.90
12746;DHT22;6437;53.686;10.030;2023-01-15T16:22:43;5.20;99.90
12746;DHT22;6437;53.686;10.030;2023-01-15T16:25:55;5.10;99.90
12746;DHT22;6437;53.686;10.030;2023-01-15T16:29:02;5.10;99.90
12746;DHT22;6437;53.686;10.030;2023-01-15T16:32:12;5.10;99.90
12746;DHT22;6437;53.686;10.030;2023-01-15T16:35:16;5.10;99.90
12746;DHT22;6437;53.686;10.030;2023-01-15T16:38:19;5.10;99.90
12746;DHT22;6437;53.686;10.030;2023-01-15T16:41:24;5.10;99.90
12746;DHT22;6437;53.686;10.030;2023-01-15T16:44:38;5.20;99.90
12746;DHT22;6437;53.686;10.030;2023-01-15T16:47:59;5.20;99.90
12746;DHT22;6437;53.686;10.030;2023-01-15T16:51:26;5.30;99.90
12746;DHT22;6437;53.686;10.030;2023-01-15T16:54:45;5.30;99.90
12746;DHT22;6437;53.686;10.030;2023-01-15T16:57:46;5.30;99.90
12746;DHT22;6437;53.686;10.030;2023-01-15T17:00:51;5.30;99.90
12746;DHT22;6437;53.686;10.030;2023-01-15T17:03:55;5.30;99.90
12746;DHT22;6437;53.686;10.030;2023-01-15T17:07:00;5.30;99.90
12746;DHT22;6437;53.686;10.030;2023-01-15T17:10:04;5.30;99.90
12746;DHT22;6437;53.686;10.030;2023-01-15T17:13:15;5.30;99.90
12746;DHT22;6437;53.686;10.030;2023-01-15T17:16:20;5.40;99.90
12746;DHT22;6437;53.686;10.030;2023-01-15T17:19:22;5.40;99.90
12746;DHT22;6437;53.686;10.030;2023-01-15T17:22:26;5.40;99.90
12746;DHT22;6437;53.686;10.030;2023-01-15T17:25:32;5.40;99.90
12746;DHT22;6437;53.686;10.030;2023-01-15T17:28:34;5.40;99.90
12746;DHT22;6437;53.686;10.030;2023-01-15T17:31:37;5.50;99.90
12746;DHT22;6437;53.686;10.030;2023-01-15T17:34:39;5.50;99.90
12746;DHT22;6437;53.686;10.030;2023-01-15T17:37:41;5.50;99.90
12746;DHT22;6437;53.686;10.030;2023-01-15T17:40:42;5.40;99.90
12746;DHT22;6437;53.686;10.030;2023-01-15T17:43:44;5.50;99.90
12746;DHT22;6437;53.686;10.030;2023-01-15T17:46:48;5.50;99.90
12746;DHT22;6437;53.686;10.030;2023-01-15T17:49:50;5.50;99.90
12746;DHT22;6437;53.686;10.030;2023-01-15T17:52:51;5.60;99.90
12746;DHT22;6437;53.686;10.030;2023-01-15T17:55:53;5.50;99.90
12746;DHT22;6437;53.686;10.030;2023-01-15T17:59:12;5.50;99.90
12746;DHT22;6437;53.686;10.030;2023-01-15T18:02:33;5.50;99.90
12746;DHT22;6437;53.686;10.030;2023-01-15T18:05:52;5.50;99.90
12746;DHT22;6437;53.686;10.030;2023-01-15T18:08:57;5.80;99.90
12746;DHT22;6437;53.686;10.030;2023-01-15T18:11:59;5.60;99.90
12746;DHT22;6437;53.686;10.030;2023-01-15T18:15:01;5.60;99.90
12746;DHT22;6437;53.686;10.030;2023-01-15T18:18:04;5.50;99.90
12746;DHT22;6437;53.686;10.030;2023-01-15T18:21:06;5.60;99.90
12746;DHT22;6437;53.686;10.030;2023-01-15T18:24:08;5.60;99.90
12746;DHT22;6437;53.686;10.030;2023-01-15T18:27:11;5.70;99.90
12746;DHT22;6437;53.686;10.030;2023-01-15T18:30:14;5.90;99.90
12746;DHT22;6437;53.686;10.030;2023-01-15T18:33:18;5.80;99.90
12746;DHT22;6437;53.686;10.030;2023-01-15T18:36:19;5.80;99.90
12746;DHT22;6437;53.686;10.030;2023-01-15T18:39:21;5.80;99.90
12746;DHT22;6437;53.686;10.030;2023-01-15T18:42:23;5.90;99.90
12746;DHT22;6437;53.686;10.030;2023-01-15T18:45:45;5.80;99.90
12746;DHT22;6437;53.686;10.030;2023-01-15T18:49:05;5.90;99.90
12746;DHT22;6437;53.686;10.030;2023-01-15T18:52:08;5.90;99.90
12746;DHT22;6437;53.686;10.030;2023-01-15T18:55:28;5.90;99.90
12746;DHT22;6437;53.686;10.030;2023-01-15T18:58:30;5.80;99.90
12746;DHT22;6437;53.686;10.030;2023-01-15T19:01:31;5.90;99.90
12746;DHT22;6437;53.686;10.030;2023-01-15T19:04:35;5.90;99.90
12746;DHT22;6437;53.686;10.030;2023-01-15T19:07:37;5.90;99.90
12746;DHT22;6437;53.686;10.030;2023-01-15T19:10:39;5.90;99.90
12746;DHT22;6437;53.686;10.030;2023-01-15T19:13:41;5.90;99.90
12746;DHT22;6437;53.686;10.030;2023-01-15T19:16:43;5.90;99.90
12746;DHT22;6437;53.686;10.030;2023-01-15T19:20:05;5.80;99.90
12746;DHT22;6437;53.686;10.030;2023-01-15T19:23:06;5.80;99.90
12746;DHT22;6437;53.686;10.030;2023-01-15T19:26:08;5.80;99.90
12746;DHT22;6437;53.686;10.030;2023-01-15T19:29:10;5.80;99.90
12746;DHT22;6437;53.686;10.030;2023-01-15T19:32:12;5.90;99.90
12746;DHT22;6437;53.686;10.030;2023-01-15T19:35:15;5.90;99.90
12746;DHT22;6437;53.686;10.030;2023-01-15T19:38:18;5.90;99.90
12746;DHT22;6437;53.686;10.030;2023-01-15T19:41:20;5.90;99.90
12746;DHT22;6437;53.686;10.030;2023-01-15T19:44:40;5.90;99.90
12746;DHT22;6437;53.686;10.030;2023-01-15T19:47:59;5.90;99.90
12746;DHT22;6437;53.686;10.030;2023-01-15T19:51:20;5.90;99.90
12746;DHT22;6437;53.686;10.030;2023-01-15T19:54:22;5.90;99.90
12746;DHT22;6437;53.686;10.030;2023-01-15T19:57:38;5.80;99.90